sensor_id;sensor_type;location;lat;lon;timestamp;pressure;altitude;pressure_sealevel;temperature
78225;BMP280;67498;53.650;10.090;2023-07-20T00:01:55;101127.84;;;14.45
78225;BMP280;67498;53.650;10.090;2023-07-20T00:04:20;101121.88;;;14.44
78225;BMP280;67498;53.650;10.090;2023-07-20T00:06:46;101120.69;;;14.45
78225;BMP280;67498;53.650;10.090;2023-07-20T00:09:11;101120.03;;;14.41
78225;BMP280;67498;53.650;10.090;2023-07-20T00:11:37;101116.94;;;14.46
78225;BMP280;67498;53.650;10.090;2023-07-20T00:14:04;101110.91;;;14.46
78225;BMP280;67498;53.650;10.090;2023-07-20T00:16:29;101111.97;;;14.48
78225;BMP280;67498;53.650;10.090;2023-07-20T00:18:55;101110.50;;;14.47
78225;BMP280;67498;53.650;10.090;2023-07-20T00:21:20;101105.25;;;14.47
78225;BMP280;67498;53.650;10.090;2023-07-20T00:23:45;101100.41;;;14.46
78225;BMP280;67498;53.650;10.090;2023-07-20T00:26:10;101101.81;;;14.50
78225;BMP280;67498;53.650;10.090;2023-07-20T00:28:36;101106.34;;;14.50
78225;BMP280;67498;53.650;10.090;2023-07-20T00:31:01;101101.81;;;14.50
78225;BMP280;67498;53.650;10.090;2023-07-20T00:33:28;101119.28;;;14.57
78225;BMP280;67498;53.650;10.090;2023-07-20T00:35:53;101109.19;;;14.55
78225;BMP280;67498;53.650;10.090;2023-07-20T00:38:18;101104.25;;;14.57
78225;BMP280;67498;53.650;10.090;2023-07-20T00:40:43;101102.47;;;14.54
78225;BMP280;67498;53.650;10.090;2023-07-20T00:43:09;101112.38;;;14.63
78225;BMP280;67498;53.650;10.090;2023-07-20T00:45:34;101110.19;;;14.61
78225;BMP280;67498;53.650;10.090;2023-07-20T00:48:02;101115.66;;;14.67
78225;BMP280;67498;53.650;10.090;2023-07-20T00:50:29;101105.56;;;14.65
78225;BMP280;67498;53.650;10.090;2023-07-20T00:52:56;101109.16;;;14.72
78225;BMP280;67498;53.650;10.090;2023-07-20T00:55:23;101101.28;;;14.72
78225;BMP280;67498;53.650;10.090;2023-07-20T00:57:49;101108.03;;;14.73
78225;BMP280;67498;53.650;10.090;2023-07-20T01:00:15;101108.78;;;14.73
78225;BMP280;67498;53.650;10.090;2023-07-20T01:02:41;101105.47;;;14.69
78225;BMP280;67498;53.650;10.090;2023-07-20T01:05:06;101116.66;;;14.73
78225;BMP280;67498;53.650;10.090;2023-07-20T01:07:38;101106.66;;;14.68
78225;BMP280;67498;53.650;10.090;2023-07-20T01:10:20;101104.75;;;14.69
78225;BMP280;67498;53.650;10.090;2023-07-20T01:12:52;101105.41;;;14.73
78225;BMP280;67498;53.650;10.090;2023-07-20T01:15:17;101104.34;;;14.70
78225;BMP280;67498;53.650;10.090;2023-07-20T01:17:43;101112.53;;;14.72
78225;BMP280;67498;53.650;10.090;2023-07-20T01:20:12;101105.81;;;14.71
78225;BMP280;67498;53.650;10.090;2023-07-20T01:28:47;101116.09;;;14.65
78225;BMP280;67498;53.650;10.090;2023-07-20T01:31:21;101111.34;;;14.60
78225;BMP280;67498;53.650;10.090;2023-07-20T01:33:50;101111.22;;;14.64
78225;BMP280;67498;53.650;10.090;2023-07-20T01:36:17;101111.22;;;14.64
78225;BMP280;67498;53.650;10.090;2023-07-20T01:38:43;101109.75;;;14.63
78225;BMP280;67498;53.650;10.090;2023-07-20T01:41:10;101106.81;;;14.61
78225;BMP280;67498;53.650;10.090;2023-07-20T01:43:36;101100.50;;;14.58
78225;BMP280;67498;53.650;10.090;2023-07-20T01:46:01;101102.81;;;14.56
78225;BMP280;67498;53.650;10.090;2023-07-20T01:48:26;101096.81;;;14.56
78225;BMP280;67498;53.650;10.090;2023-07-20T01:50:52;101101.63;;;14.57
78225;BMP280;67498;53.650;10.090;2023-07-20T01:53:17;101106.81;;;14.61
78225;BMP280;67498;53.650;10.090;2023-07-20T01:55:42;101106.81;;;14.61
78225;BMP280;67498;53.650;10.090;2023-07-20T01:58:08;101101.56;;;14.61
78225;BMP280;67498;53.650;10.090;2023-07-20T02:00:33;101099.72;;;14.58
78225;BMP280;67498;53.650;10.090;2023-07-20T02:02:58;101090.78;;;14.55
78225;BMP280;67498;53.650;10.090;2023-07-20T02:05:24;101100.06;;;14.60
78225;BMP280;67498;53.650;10.090;2023-07-20T02:07:49;101091.09;;;14.57
78225;BMP280;67498;53.650;10.090;2023-07-20T02:10:15;101100.84;;;14.60
78225;BMP280;67498;53.650;10.090;2023-07-20T02:12:40;101102.06;;;14.56
78225;BMP280;67498;53.650;10.090;2023-07-20T02:15:05;101102.34;;;14.58
78225;BMP280;67498;53.650;10.090;2023-07-20T02:17:31;101101.63;;;14.57
78225;BMP280;67498;53.650;10.090;2023-07-20T02:19:56;101097.94;;;14.55
78225;BMP280;67498;53.650;10.090;2023-07-20T02:22:24;101098.03;;;14.51
78225;BMP280;67498;53.650;10.090;2023-07-20T02:24:50;101086.88;;;14.47
78225;BMP280;67498;53.650;10.090;2023-07-20T02:27:16;101106.25;;;14.53
78225;BMP280;67498;53.650;10.090;2023-07-20T02:29:41;101105.44;;;14.56
78225;BMP280;67498;53.650;10.090;2023-07-20T02:32:07;101113.63;;;14.58
78225;BMP280;67498;53.650;10.090;2023-07-20T02:34:33;101104.03;;;14.52
78225;BMP280;67498;53.650;10.090;2023-07-20T02:36:59;101107.31;;;14.56
78225;BMP280;67498;53.650;10.090;2023-07-20T02:39:27;101110.25;;;14.58
78225;BMP280;67498;53.650;10.090;2023-07-20T02:41:52;101110.34;;;14.54
78225;BMP280;67498;53.650;10.090;2023-07-20T02:44:17;101121.09;;;14.60
78225;BMP280;67498;53.650;10.090;2023-07-20T02:46:42;101117.84;;;14.56
78225;BMP280;67498;53.650;10.090;2023-07-20T02:49:08;101112.88;;;14.58
78225;BMP280;67498;53.650;10.090;2023-07-20T02:51:33;101115.22;;;14.56
78225;BMP280;67498;53.650;10.090;2023-07-20T02:53:59;101123.09;;;14.56
78225;BMP280;67498;53.650;10.090;2023-07-20T02:56:24;101119.38;;;14.53
78225;BMP280;67498;53.650;10.090;2023-07-20T02:58:49;101112.63;;;14.52
78225;BMP280;67498;53.650;10.090;2023-07-20T03:01:15;101118.13;;;14.58
78225;BMP280;67498;53.650;10.090;2023-07-20T03:03:40;101112.59;;;14.56
78225;BMP280;67498;53.650;10.090;2023-07-20T03:06:06;101111.41;;;14.57
78225;BMP280;67498;53.650;10.090;2023-07-20T03:08:31;101114.38;;;14.59
78225;BMP280;67498;53.650;10.090;2023-07-20T03:10:56;101113.72;;;14.55
78225;BMP280;67498;53.650;10.090;2023-07-20T03:13:22;101101.00;;;14.53
78225;BMP280;67498;53.650;10.090;2023-07-20T03:15:49;101111.09;;;14.55
78225;BMP280;67498;53.650;10.090;2023-07-20T03:18:14;101117.88;;;14.52
78225;BMP280;67498;53.650;10.090;2023-07-20T03:20:39;101121.91;;;14.57
78225;BMP280;67498;53.650;10.090;2023-07-20T03:23:04;101117.50;;;14.54
78225;BMP280;67498;53.650;10.090;2023-07-20T03:25:30;101121.59;;;14.55
78225;BMP280;67498;53.650;10.090;2023-07-20T03:27:55;101120.13;;;14.54
78225;BMP280;67498;53.650;10.090;2023-07-20T03:30:20;101124.22;;;14.55
78225;BMP280;67498;53.650;10.090;2023-07-20T03:32:46;101120.47;;;14.56
78225;BMP280;67498;53.650;10.090;2023-07-20T03:35:11;101127.84;;;14.61
78225;BMP280;67498;53.650;10.090;2023-07-20T03:37:36;101119.97;;;14.61
78225;BMP280;67498;53.650;10.090;2023-07-20T03:40:03;101116.25;;;14.58
78225;BMP280;67498;53.650;10.090;2023-07-20T03:42:29;101128.16;;;14.63
78225;BMP280;67498;53.650;10.090;2023-07-20T03:44:55;101122.16;;;14.62
78225;BMP280;67498;53.650;10.090;2023-07-20T03:47:20;101129.22;;;14.65
78225;BMP280;67498;53.650;10.090;2023-07-20T03:49:45;101131.44;;;14.67
78225;BMP280;67498;53.650;10.090;2023-07-20T03:52:10;101120.28;;;14.63
78225;BMP280;67498;53.650;10.090;2023-07-20T03:54:36;101129.22;;;14.65
78225;BMP280;67498;53.650;10.090;2023-07-20T03:57:01;101121.44;;;14.62
78225;BMP280;67498;53.650;10.090;2023-07-20T03:59:26;101129.56;;;14.68
78225;BMP280;67498;53.650;10.090;2023-07-20T04:01:51;101129.31;;;14.62
78225;BMP280;67498;53.650;10.090;2023-07-20T04:04:17;101140.13;;;14.64
78225;BMP280;67498;53.650;10.090;2023-07-20T04:06:42;101134.50;;;14.65
78225;BMP280;67498;53.650;10.090;2023-07-20T04:09:09;101135.72;;;14.61
78225;BMP280;67498;53.650;10.090;2023-07-20T04:11:35;101132.19;;;14.68
78225;BMP280;67498;53.650;10.090;2023-07-20T04:14:00;101135.22;;;14.66
78225;BMP280;67498;53.650;10.090;2023-07-20T04:16:25;101136.94;;;14.73
78225;BMP280;67498;53.650;10.090;2023-07-20T04:18:51;101138.50;;;14.70
78225;BMP280;67498;53.650;10.090;2023-07-20T04:21:17;101144.41;;;14.74
78225;BMP280;67498;53.650;10.090;2023-07-20T04:23:42;101138.50;;;14.70
78225;BMP280;67498;53.650;10.090;2023-07-20T04:26:07;101137.69;;;14.73
78225;BMP280;67498;53.650;10.090;2023-07-20T04:28:33;101142.78;;;14.64
78225;BMP280;67498;53.650;10.090;2023-07-20T04:33:37;101148.72;;;14.68
78225;BMP280;67498;53.650;10.090;2023-07-20T04:36:02;101160.91;;;14.75
78225;BMP280;67498;53.650;10.090;2023-07-20T04:38:28;101156.66;;;14.81
78225;BMP280;67498;53.650;10.090;2023-07-20T04:40:53;101155.06;;;14.83
78225;BMP280;67498;53.650;10.090;2023-07-20T04:43:18;101160.56;;;14.89
78225;BMP280;67498;53.650;10.090;2023-07-20T04:45:44;101143.44;;;14.84
78225;BMP280;67498;53.650;10.090;2023-07-20T04:48:11;101153.31;;;14.93
78225;BMP280;67498;53.650;10.090;2023-07-20T04:50:37;101148.53;;;15.04
78225;BMP280;67498;53.650;10.090;2023-07-20T04:53:03;101147.97;;;15.13
78225;BMP280;67498;53.650;10.090;2023-07-20T04:55:28;101145.44;;;15.22
78225;BMP280;67498;53.650;10.090;2023-07-20T04:57:54;101138.72;;;15.21
78225;BMP280;67498;53.650;10.090;2023-07-20T05:00:19;101143.66;;;15.19
78225;BMP280;67498;53.650;10.090;2023-07-20T05:02:45;101149.03;;;15.15
78225;BMP280;67498;53.650;10.090;2023-07-20T05:05:12;101140.06;;;15.13
78225;BMP280;67498;53.650;10.090;2023-07-20T05:07:38;101154.91;;;15.20
78225;BMP280;67498;53.650;10.090;2023-07-20T05:10:03;101150.81;;;15.19
78225;BMP280;67498;53.650;10.090;2023-07-20T05:12:28;101142.78;;;15.09
78225;BMP280;67498;53.650;10.090;2023-07-20T05:14:54;101152.78;;;15.14
78225;BMP280;67498;53.650;10.090;2023-07-20T05:17:19;101153.03;;;15.20
78225;BMP280;67498;53.650;10.090;2023-07-20T05:19:44;101149.78;;;15.29
78225;BMP280;67498;53.650;10.090;2023-07-20T05:22:09;101147.41;;;15.47
78225;BMP280;67498;53.650;10.090;2023-07-20T05:24:36;101151.22;;;16.92
78225;BMP280;67498;53.650;10.090;2023-07-20T05:27:01;101145.13;;;18.89
78225;BMP280;67498;53.650;10.090;2023-07-20T05:29:26;101152.41;;;19.88
78225;BMP280;67498;53.650;10.090;2023-07-20T05:31:51;101157.47;;;20.84
78225;BMP280;67498;53.650;10.090;2023-07-20T05:34:17;101146.59;;;21.32
78225;BMP280;67498;53.650;10.090;2023-07-20T05:36:42;101153.88;;;21.52
78225;BMP280;67498;53.650;10.090;2023-07-20T05:39:07;101160.22;;;22.47
78225;BMP280;67498;53.650;10.090;2023-07-20T05:41:33;101157.88;;;23.29
78225;BMP280;67498;53.650;10.090;2023-07-20T05:43:58;101148.88;;;24.03
78225;BMP280;67498;53.650;10.090;2023-07-20T05:46:23;101152.00;;;24.85
78225;BMP280;67498;53.650;10.090;2023-07-20T05:48:49;101150.09;;;25.44
78225;BMP280;67498;53.650;10.090;2023-07-20T05:51:15;101148.56;;;25.90
78225;BMP280;67498;53.650;10.090;2023-07-20T05:53:40;101146.81;;;26.28
78225;BMP280;67498;53.650;10.090;2023-07-20T05:56:06;101150.78;;;26.70
78225;BMP280;67498;53.650;10.090;2023-07-20T05:58:35;101145.19;;;26.93
78225;BMP280;67498;53.650;10.090;2023-07-20T06:01:00;101153.53;;;27.27
78225;BMP280;67498;53.650;10.090;2023-07-20T06:03:25;101152.13;;;27.58
78225;BMP280;67498;53.650;10.090;2023-07-20T06:05:50;101154.41;;;27.16
78225;BMP280;67498;53.650;10.090;2023-07-20T06:08:16;101162.28;;;26.90
78225;BMP280;67498;53.650;10.090;2023-07-20T06:10:42;101165.28;;;26.02
78225;BMP280;67498;53.650;10.090;2023-07-20T06:13:07;101156.34;;;24.94
78225;BMP280;67498;53.650;10.090;2023-07-20T06:15:33;101160.16;;;25.21
78225;BMP280;67498;53.650;10.090;2023-07-20T06:18:00;101159.81;;;25.83
78225;BMP280;67498;53.650;10.090;2023-07-20T06:20:26;101169.78;;;26.72
78225;BMP280;67498;53.650;10.090;2023-07-20T06:22:51;101151.09;;;27.29
78225;BMP280;67498;53.650;10.090;2023-07-20T06:25:17;101164.94;;;26.90
78225;BMP280;67498;53.650;10.090;2023-07-20T06:27:43;101177.28;;;25.48
78225;BMP280;67498;53.650;10.090;2023-07-20T06:30:08;101169.50;;;24.08
78225;BMP280;67498;53.650;10.090;2023-07-20T06:32:34;101173.22;;;23.03
78225;BMP280;67498;53.650;10.090;2023-07-20T06:34:59;101168.63;;;23.52
78225;BMP280;67498;53.650;10.090;2023-07-20T06:37:24;101172.38;;;25.00
78225;BMP280;67498;53.650;10.090;2023-07-20T06:39:50;101179.97;;;26.25
78225;BMP280;67498;53.650;10.090;2023-07-20T06:42:15;101175.41;;;26.93
78225;BMP280;67498;53.650;10.090;2023-07-20T06:44:40;101169.78;;;27.16
78225;BMP280;67498;53.650;10.090;2023-07-20T06:47:06;101174.72;;;27.11
78225;BMP280;67498;53.650;10.090;2023-07-20T06:49:31;101173.50;;;26.64
78225;BMP280;67498;53.650;10.090;2023-07-20T06:51:57;101170.75;;;25.90
78225;BMP280;67498;53.650;10.090;2023-07-20T06:54:22;101174.47;;;25.24
78225;BMP280;67498;53.650;10.090;2023-07-20T06:56:47;101176.63;;;25.31
78225;BMP280;67498;53.650;10.090;2023-07-20T06:59:12;101170.00;;;25.90
78225;BMP280;67498;53.650;10.090;2023-07-20T07:01:38;101173.16;;;26.48
78225;BMP280;67498;53.650;10.090;2023-07-20T07:04:04;101173.72;;;26.66
78225;BMP280;67498;53.650;10.090;2023-07-20T07:06:30;101175.66;;;27.14
78225;BMP280;67498;53.650;10.090;2023-07-20T07:08:56;101170.06;;;27.50
78225;BMP280;67498;53.650;10.090;2023-07-20T07:11:21;101172.13;;;27.76
78225;BMP280;67498;53.650;10.090;2023-07-20T07:13:47;101165.28;;;27.42
78225;BMP280;67498;53.650;10.090;2023-07-20T07:16:14;101162.31;;;26.35
78225;BMP280;67498;53.650;10.090;2023-07-20T07:18:43;101178.22;;;25.56
78225;BMP280;67498;53.650;10.090;2023-07-20T07:21:09;101174.78;;;25.61
78225;BMP280;67498;53.650;10.090;2023-07-20T07:23:34;101177.94;;;25.71
78225;BMP280;67498;53.650;10.090;2023-07-20T07:25:59;101178.59;;;25.25
78225;BMP280;67498;53.650;10.090;2023-07-20T07:28:24;101174.34;;;24.77
78225;BMP280;67498;53.650;10.090;2023-07-20T07:30:50;101174.84;;;24.64
78225;BMP280;67498;53.650;10.090;2023-07-20T07:33:15;101164.91;;;24.37
78225;BMP280;67498;53.650;10.090;2023-07-20T07:35:40;101170.66;;;23.85
78225;BMP280;67498;53.650;10.090;2023-07-20T07:38:06;101187.06;;;23.12
78225;BMP280;67498;53.650;10.090;2023-07-20T07:40:31;101188.59;;;22.30
78225;BMP280;67498;53.650;10.090;2023-07-20T07:42:57;101196.59;;;21.48
78225;BMP280;67498;53.650;10.090;2023-07-20T07:45:22;101204.25;;;20.82
78225;BMP280;67498;53.650;10.090;2023-07-20T07:47:47;101191.25;;;20.15
78225;BMP280;67498;53.650;10.090;2023-07-20T07:50:12;101187.25;;;19.72
78225;BMP280;67498;53.650;10.090;2023-07-20T07:52:38;101189.56;;;19.37
78225;BMP280;67498;53.650;10.090;2023-07-20T07:55:03;101184.47;;;19.24
78225;BMP280;67498;53.650;10.090;2023-07-20T07:57:29;101195.28;;;19.44
78225;BMP280;67498;53.650;10.090;2023-07-20T07:59:54;101194.81;;;19.55
78225;BMP280;67498;53.650;10.090;2023-07-20T08:02:19;101186.28;;;19.51
78225;BMP280;67498;53.650;10.090;2023-07-20T08:04:44;101188.47;;;19.62
78225;BMP280;67498;53.650;10.090;2023-07-20T08:07:10;101192.81;;;19.74
78225;BMP280;67498;53.650;10.090;2023-07-20T08:09:35;101185.94;;;19.91
78225;BMP280;67498;53.650;10.090;2023-07-20T08:12:00;101188.09;;;20.02
78225;BMP280;67498;53.650;10.090;2023-07-20T08:14:25;101187.28;;;20.11
78225;BMP280;67498;53.650;10.090;2023-07-20T08:16:51;101195.84;;;20.30
78225;BMP280;67498;53.650;10.090;2023-07-20T08:19:16;101186.19;;;20.41
78225;BMP280;67498;53.650;10.090;2023-07-20T08:21:42;101186.59;;;20.64
78225;BMP280;67498;53.650;10.090;2023-07-20T08:24:07;101189.72;;;20.62
78225;BMP280;67498;53.650;10.090;2023-07-20T08:26:32;101191.50;;;20.41
78225;BMP280;67498;53.650;10.090;2023-07-20T08:28:57;101186.09;;;20.12
78225;BMP280;67498;53.650;10.090;2023-07-20T08:31:23;101196.16;;;20.08
78225;BMP280;67498;53.650;10.090;2023-07-20T08:33:48;101194.22;;;20.08
78225;BMP280;67498;53.650;10.090;2023-07-20T08:36:13;101190.47;;;20.00
78225;BMP280;67498;53.650;10.090;2023-07-20T08:38:39;101195.09;;;20.14
78225;BMP280;67498;53.650;10.090;2023-07-20T08:41:04;101191.53;;;20.17
78225;BMP280;67498;53.650;10.090;2023-07-20T08:43:30;101188.13;;;20.17
78225;BMP280;67498;53.650;10.090;2023-07-20T08:45:56;101184.03;;;20.16
78225;BMP280;67498;53.650;10.090;2023-07-20T08:48:22;101201.88;;;20.30
78225;BMP280;67498;53.650;10.090;2023-07-20T08:50:52;101192.78;;;20.46
78225;BMP280;67498;53.650;10.090;2023-07-20T08:53:21;101191.97;;;20.84
78225;BMP280;67498;53.650;10.090;2023-07-20T08:55:48;101184.56;;;21.03
78225;BMP280;67498;53.650;10.090;2023-07-20T08:58:15;101188.41;;;21.17
78225;BMP280;67498;53.650;10.090;2023-07-20T09:00:40;101197.47;;;21.25
78225;BMP280;67498;53.650;10.090;2023-07-20T09:03:06;101198.47;;;21.27
78225;BMP280;67498;53.650;10.090;2023-07-20T09:05:32;101200.13;;;21.10
78225;BMP280;67498;53.650;10.090;2023-07-20T09:07:57;101193.00;;;21.16
78225;BMP280;67498;53.650;10.090;2023-07-20T09:10:23;101200.66;;;21.29
78225;BMP280;67498;53.650;10.090;2023-07-20T09:12:48;101205.75;;;21.47
78225;BMP280;67498;53.650;10.090;2023-07-20T09:15:14;101191.41;;;21.59
78225;BMP280;67498;53.650;10.090;2023-07-20T09:17:45;101190.22;;;21.60
78225;BMP280;67498;53.650;10.090;2023-07-20T09:20:11;101192.59;;;21.58
78225;BMP280;67498;53.650;10.090;2023-07-20T09:22:38;101215.84;;;21.43
78225;BMP280;67498;53.650;10.090;2023-07-20T09:25:15;101227.16;;;20.94
78225;BMP280;67498;53.650;10.090;2023-07-20T09:27:45;101229.31;;;20.27
78225;BMP280;67498;53.650;10.090;2023-07-20T09:30:11;101229.72;;;19.78
78225;BMP280;67498;53.650;10.090;2023-07-20T09:32:43;101224.56;;;19.50
78225;BMP280;67498;53.650;10.090;2023-07-20T09:35:17;101225.72;;;19.49
78225;BMP280;67498;53.650;10.090;2023-07-20T09:38:01;101224.63;;;19.74
78225;BMP280;67498;53.650;10.090;2023-07-20T09:40:27;101232.41;;;20.01
78225;BMP280;67498;53.650;10.090;2023-07-20T09:42:54;101225.06;;;20.20
78225;BMP280;67498;53.650;10.090;2023-07-20T09:45:41;101220.13;;;20.37
78225;BMP280;67498;53.650;10.090;2023-07-20T09:48:08;101219.97;;;20.56
78225;BMP280;67498;53.650;10.090;2023-07-20T09:50:39;101222.75;;;20.76
78225;BMP280;67498;53.650;10.090;2023-07-20T09:53:06;101221.84;;;20.79
78225;BMP280;67498;53.650;10.090;2023-07-20T09:55:32;101212.03;;;20.70
78225;BMP280;67498;53.650;10.090;2023-07-20T09:57:58;101214.72;;;20.85
78225;BMP280;67498;53.650;10.090;2023-07-20T10:00:24;101212.03;;;21.15
78225;BMP280;67498;53.650;10.090;2023-07-20T10:02:51;101213.41;;;21.25
78225;BMP280;67498;53.650;10.090;2023-07-20T10:05:17;101225.22;;;21.24
78225;BMP280;67498;53.650;10.090;2023-07-20T10:07:47;101215.34;;;21.24
78225;BMP280;67498;53.650;10.090;2023-07-20T10:10:17;101211.56;;;21.31
78225;BMP280;67498;53.650;10.090;2023-07-20T10:12:45;101204.41;;;21.37
78225;BMP280;67498;53.650;10.090;2023-07-20T10:15:17;101201.56;;;21.41
78225;BMP280;67498;53.650;10.090;2023-07-20T10:17:53;101201.63;;;21.46
78225;BMP280;67498;53.650;10.090;2023-07-20T10:20:21;101210.31;;;21.62
78225;BMP280;67498;53.650;10.090;2023-07-20T10:22:47;101216.28;;;21.77
78225;BMP280;67498;53.650;10.090;2023-07-20T10:25:14;101212.47;;;21.63
78225;BMP280;67498;53.650;10.090;2023-07-20T10:27:40;101217.94;;;21.39
78225;BMP280;67498;53.650;10.090;2023-07-20T10:30:06;101226.78;;;21.16
78225;BMP280;67498;53.650;10.090;2023-07-20T10:32:32;101223.94;;;20.90
78225;BMP280;67498;53.650;10.090;2023-07-20T10:34:58;101227.59;;;20.63
78225;BMP280;67498;53.650;10.090;2023-07-20T10:37:46;101230.47;;;20.35
78225;BMP280;67498;53.650;10.090;2023-07-20T10:40:27;101211.81;;;19.96
78225;BMP280;67498;53.650;10.090;2023-07-20T10:43:00;101220.81;;;19.66
78225;BMP280;67498;53.650;10.090;2023-07-20T10:45:53;101222.22;;;19.43
78225;BMP280;67498;53.650;10.090;2023-07-20T10:48:23;101225.59;;;19.43
78225;BMP280;67498;53.650;10.090;2023-07-20T10:51:11;101215.38;;;19.60
78225;BMP280;67498;53.650;10.090;2023-07-20T10:53:39;101213.31;;;19.64
78225;BMP280;67498;53.650;10.090;2023-07-20T10:56:12;101216.66;;;19.74
78225;BMP280;67498;53.650;10.090;2023-07-20T10:58:39;101216.28;;;19.90
78225;BMP280;67498;53.650;10.090;2023-07-20T11:01:05;101221.66;;;20.05
78225;BMP280;67498;53.650;10.090;2023-07-20T11:03:33;101222.91;;;20.19
78225;BMP280;67498;53.650;10.090;2023-07-20T11:05:59;101222.03;;;20.13
78225;BMP280;67498;53.650;10.090;2023-07-20T11:08:44;101218.44;;;20.01
78225;BMP280;67498;53.650;10.090;2023-07-20T11:11:29;101221.44;;;19.94
78225;BMP280;67498;53.650;10.090;2023-07-20T11:14:02;101208.97;;;19.85
78225;BMP280;67498;53.650;10.090;2023-07-20T11:16:43;101211.22;;;20.01
78225;BMP280;67498;53.650;10.090;2023-07-20T11:19:17;101213.66;;;20.14
78225;BMP280;67498;53.650;10.090;2023-07-20T11:21:44;101216.00;;;20.36
78225;BMP280;67498;53.650;10.090;2023-07-20T11:24:10;101215.13;;;20.54
78225;BMP280;67498;53.650;10.090;2023-07-20T11:26:42;101201.41;;;20.70
78225;BMP280;67498;53.650;10.090;2023-07-20T11:29:08;101205.44;;;20.80
78225;BMP280;67498;53.650;10.090;2023-07-20T11:31:40;101219.56;;;20.87
78225;BMP280;67498;53.650;10.090;2023-07-20T11:34:09;101213.50;;;21.01
78225;BMP280;67498;53.650;10.090;2023-07-20T11:36:35;101220.00;;;21.29
78225;BMP280;67498;53.650;10.090;2023-07-20T11:39:00;101216.91;;;21.51
78225;BMP280;67498;53.650;10.090;2023-07-20T11:41:26;101211.19;;;21.73
78225;BMP280;67498;53.650;10.090;2023-07-20T11:43:52;101215.44;;;22.06
78225;BMP280;67498;53.650;10.090;2023-07-20T11:46:17;101215.50;;;22.11
78225;BMP280;67498;53.650;10.090;2023-07-20T11:48:42;101221.81;;;21.94
78225;BMP280;67498;53.650;10.090;2023-07-20T11:51:17;101236.34;;;21.57
78225;BMP280;67498;53.650;10.090;2023-07-20T11:53:46;101254.81;;;21.17
78225;BMP280;67498;53.650;10.090;2023-07-20T11:56:12;101235.25;;;20.61
78225;BMP280;67498;53.650;10.090;2023-07-20T11:58:43;101249.88;;;20.17
78225;BMP280;67498;53.650;10.090;2023-07-20T12:01:09;101263.78;;;19.70
78225;BMP280;67498;53.650;10.090;2023-07-20T12:03:35;101268.63;;;19.20
78225;BMP280;67498;53.650;10.090;2023-07-20T12:06:07;101265.25;;;18.74
78225;BMP280;67498;53.650;10.090;2023-07-20T12:08:33;101246.81;;;18.24
78225;BMP280;67498;53.650;10.090;2023-07-20T12:10:59;101242.13;;;17.88
78225;BMP280;67498;53.650;10.090;2023-07-20T12:13:35;101245.53;;;17.66
78225;BMP280;67498;53.650;10.090;2023-07-20T12:16:07;101241.31;;;17.47
78225;BMP280;67498;53.650;10.090;2023-07-20T12:18:36;101256.72;;;17.49
78225;BMP280;67498;53.650;10.090;2023-07-20T12:21:02;101259.19;;;17.43
78225;BMP280;67498;53.650;10.090;2023-07-20T12:23:35;101256.69;;;17.39
78225;BMP280;67498;53.650;10.090;2023-07-20T12:26:01;101255.34;;;17.35
78225;BMP280;67498;53.650;10.090;2023-07-20T12:28:26;101265.66;;;17.42
78225;BMP280;67498;53.650;10.090;2023-07-20T12:30:51;101250.94;;;17.63
78225;BMP280;67498;53.650;10.090;2023-07-20T12:33:21;101250.22;;;17.93
78225;BMP280;67498;53.650;10.090;2023-07-20T12:35:47;101252.00;;;18.06
78225;BMP280;67498;53.650;10.090;2023-07-20T12:38:12;101248.41;;;18.22
78225;BMP280;67498;53.650;10.090;2023-07-20T12:40:38;101253.91;;;18.45
78225;BMP280;67498;53.650;10.090;2023-07-20T12:43:03;101244.50;;;18.63
78225;BMP280;67498;53.650;10.090;2023-07-20T12:45:29;101246.13;;;18.60
78225;BMP280;67498;53.650;10.090;2023-07-20T12:47:55;101245.81;;;18.40
78225;BMP280;67498;53.650;10.090;2023-07-20T12:50:20;101257.38;;;18.24
78225;BMP280;67498;53.650;10.090;2023-07-20T12:52:45;101251.16;;;18.09
78225;BMP280;67498;53.650;10.090;2023-07-20T12:55:10;101243.47;;;17.92
78225;BMP280;67498;53.650;10.090;2023-07-20T12:57:36;101242.25;;;17.84
78225;BMP280;67498;53.650;10.090;2023-07-20T13:00:04;101240.22;;;17.88
78225;BMP280;67498;53.650;10.090;2023-07-20T13:02:30;101231.63;;;18.06
78225;BMP280;67498;53.650;10.090;2023-07-20T13:04:56;101243.13;;;18.22
78225;BMP280;67498;53.650;10.090;2023-07-20T13:07:29;101230.38;;;18.29
78225;BMP280;67498;53.650;10.090;2023-07-20T13:09:55;101231.38;;;18.32
78225;BMP280;67498;53.650;10.090;2023-07-20T13:12:21;101241.84;;;18.44
78225;BMP280;67498;53.650;10.090;2023-07-20T13:14:46;101230.50;;;18.44
78225;BMP280;67498;53.650;10.090;2023-07-20T13:17:11;101223.63;;;18.47
78225;BMP280;67498;53.650;10.090;2023-07-20T13:19:37;101229.81;;;18.53
78225;BMP280;67498;53.650;10.090;2023-07-20T13:22:02;101237.88;;;18.49
78225;BMP280;67498;53.650;10.090;2023-07-20T13:24:27;101243.91;;;18.40
78225;BMP280;67498;53.650;10.090;2023-07-20T13:26:52;101251.22;;;18.27
78225;BMP280;67498;53.650;10.090;2023-07-20T13:29:18;101246.63;;;18.09
78225;BMP280;67498;53.650;10.090;2023-07-20T13:31:43;101240.25;;;17.98
78225;BMP280;67498;53.650;10.090;2023-07-20T13:34:09;101235.75;;;18.16
78225;BMP280;67498;53.650;10.090;2023-07-20T13:36:34;101245.53;;;18.38
78225;BMP280;67498;53.650;10.090;2023-07-20T13:38:59;101245.81;;;18.58
78225;BMP280;67498;53.650;10.090;2023-07-20T13:41:24;101240.41;;;18.89
78225;BMP280;67498;53.650;10.090;2023-07-20T13:43:50;101242.59;;;19.18
78225;BMP280;67498;53.650;10.090;2023-07-20T13:46:15;101240.06;;;19.33
78225;BMP280;67498;53.650;10.090;2023-07-20T13:48:40;101237.75;;;19.17
78225;BMP280;67498;53.650;10.090;2023-07-20T13:51:05;101241.00;;;18.93